Time;durP1;ratioP1;P1;durP2;ratioP2;P2;SDS_P1;SDS_P2;PMS_P1;PMS_P2;Temp;Humidity;BMP_temperature;BMP_pressure;BME280_temperature;BME280_humidity;BME280_pressure;Samples;Min_cycle;Max_cycle;Signal;HPM_P1;HPM_P2
2022/06/29 00:01:45;;;;;;;8.88;6.38;;;;;;;;;;5014309;28;20125;-41
2022/06/29 00:04:11;;;;;;;6.07;5.47;;;;;;;;;;5029487;28;20176;-41
2022/06/29 00:06:36;;;;;;;8.02;5.80;;;;;;;;;;5014204;28;20065;-41
2022/06/29 00:09:01;;;;;;;7.43;5.53;;;;;;;;;;5014117;28;20044;-41
2022/06/29 00:11:28;;;;;;;10.80;6.60;;;;;;;;;;5014323;28;20041;-41
2022/06/29 00:13:53;;;;;;;6.97;5.75;;;;;;;;;;5014118;28;20018;-41
2022/06/29 00:16:18;;;;;;;9.48;6.88;;;;;;;;;;5014136;28;20044;-41
2022/06/29 00:18:44;;;;;;;6.22;5.63;;;;;;;;;;5014030;28;20025;-43
2022/06/29 00:21:09;;;;;;;9.52;6.32;;;;;;;;;;5013903;28;20026;-41
2022/06/29 00:23:34;;;;;;;7.82;6.00;;;;;;;;;;5013773;28;20029;-41
2022/06/29 00:26:00;;;;;;;6.75;5.80;;;;;;;;;;5013960;28;20030;-41
2022/06/29 00:28:25;;;;;;;6.15;5.55;;;;;;;;;;5014135;28;20037;-42
2022/06/29 00:30:51;;;;;;;9.80;5.95;;;;;;;;;;5013762;28;20033;-41
2022/06/29 00:33:16;;;;;;;7.80;4.97;;;;;;;;;;5013742;28;20029;-41
2022/06/29 00:35:41;;;;;;;10.48;5.43;;;;;;;;;;5012927;28;20486;-41
2022/06/29 00:38:07;;;;;;;6.60;5.32;;;;;;;;;;5013490;28;20037;-41
2022/06/29 00:40:32;;;;;;;10.18;5.30;;;;;;;;;;5013633;28;20495;-41
2022/06/29 00:42:57;;;;;;;5.97;5.47;;;;;;;;;;5013479;28;20026;-41
2022/06/29 00:45:23;;;;;;;6.68;5.55;;;;;;;;;;5013807;28;20029;-41
2022/06/29 00:47:48;;;;;;;8.80;5.47;;;;;;;;;;5013340;28;20432;-41
2022/06/29 00:50:14;;;;;;;11.75;5.72;;;;;;;;;;5013399;28;20037;-41
2022/06/29 00:52:41;;;;;;;7.93;5.00;;;;;;;;;;5013608;28;20495;-40
2022/06/29 00:55:10;;;;;;;8.15;5.82;;;;;;;;;;5013638;28;20391;-41
2022/06/29 00:57:37;;;;;;;6.35;5.70;;;;;;;;;;5013172;28;20053;-41
2022/06/29 01:00:03;;;;;;;6.68;6.05;;;;;;;;;;5013319;28;20029;-41
2022/06/29 01:02:32;;;;;;;6.20;5.50;;;;;;;;;;5012832;28;20526;-41
2022/06/29 01:04:58;;;;;;;8.48;6.05;;;;;;;;;;5013135;28;20112;-41
2022/06/29 01:07:24;;;;;;;6.25;5.70;;;;;;;;;;5013209;28;20132;-41
2022/06/29 01:09:50;;;;;;;7.55;5.60;;;;;;;;;;5013115;28;20096;-41
2022/06/29 01:12:15;;;;;;;5.97;5.30;;;;;;;;;;5013206;28;20043;-41
2022/06/29 01:14:42;;;;;;;9.48;5.82;;;;;;;;;;5011931;28;20360;-41
2022/06/29 01:17:07;;;;;;;6.97;5.22;;;;;;;;;;5013128;28;20053;-41
2022/06/29 01:19:33;;;;;;;6.47;5.78;;;;;;;;;;5013105;28;20064;-41
2022/06/29 01:22:01;;;;;;;6.45;5.45;;;;;;;;;;5012931;28;20064;-41
2022/06/29 01:24:27;;;;;;;9.98;6.07;;;;;;;;;;5012844;28;20535;-41
2022/06/29 01:26:53;;;;;;;5.70;5.20;;;;;;;;;;5012916;28;20030;-41
2022/06/29 01:29:18;;;;;;;6.38;5.78;;;;;;;;;;5012854;28;20074;-41
2022/06/29 01:31:44;;;;;;;6.32;5.13;;;;;;;;;;5012553;28;20173;-41
2022/06/29 01:34:10;;;;;;;10.90;5.15;;;;;;;;;;5012995;28;20065;-41
2022/06/29 01:36:35;;;;;;;10.18;5.90;;;;;;;;;;5012583;28;20025;-40
2022/06/29 01:39:01;;;;;;;7.10;5.10;;;;;;;;;;5012537;28;20068;-41
2022/06/29 01:41:26;;;;;;;6.78;5.20;;;;;;;;;;5012455;28;20025;-41
2022/06/29 01:43:52;;;;;;;9.93;5.80;;;;;;;;;;5012351;28;20034;-40
2022/06/29 01:46:17;;;;;;;6.85;5.18;;;;;;;;;;5012563;28;20018;-41
2022/06/29 01:48:43;;;;;;;7.20;5.53;;;;;;;;;;5012008;28;20076;-41
2022/06/29 01:51:08;;;;;;;5.50;4.72;;;;;;;;;;5012249;28;20434;-41
2022/06/29 01:53:33;;;;;;;5.82;5.00;;;;;;;;;;5012268;28;20387;-41
2022/06/29 01:55:59;;;;;;;4.55;4.18;;;;;;;;;;5012283;28;20017;-41
2022/06/29 01:58:24;;;;;;;6.03;5.25;;;;;;;;;;5012238;28;20041;-41
2022/06/29 02:00:50;;;;;;;5.22;4.72;;;;;;;;;;5012108;28;20037;-41
2022/06/29 02:03:15;;;;;;;5.45;4.78;;;;;;;;;;5011869;28;20046;-41
2022/06/29 02:05:41;;;;;;;7.28;4.90;;;;;;;;;;5012024;28;20034;-41
2022/06/29 02:08:06;;;;;;;8.23;4.97;;;;;;;;;;5012276;28;20048;-41
2022/06/29 02:10:32;;;;;;;5.13;4.50;;;;;;;;;;5012274;28;20036;-41
2022/06/29 02:12:58;;;;;;;5.00;4.50;;;;;;;;;;5011931;28;20029;-41
2022/06/29 02:15:23;;;;;;;6.03;4.30;;;;;;;;;;5011915;28;20021;-41
2022/06/29 02:17:49;;;;;;;7.05;5.05;;;;;;;;;;5011943;28;20038;-41
2022/06/29 02:20:14;;;;;;;10.85;6.13;;;;;;;;;;5012222;28;20022;-41
2022/06/29 02:22:40;;;;;;;7.75;4.78;;;;;;;;;;5011738;28;20037;-42
2022/06/29 02:25:06;;;;;;;9.98;4.60;;;;;;;;;;5011756;28;20021;-41
2022/06/29 02:27:31;;;;;;;7.05;5.47;;;;;;;;;;5011596;28;20038;-40
2022/06/29 02:29:56;;;;;;;5.60;4.85;;;;;;;;;;5011609;28;20021;-41
2022/06/29 02:35:06;;;;;;;6.00;3.72;;;;;;;;;;5011591;28;20061;-41
2022/06/29 02:37:31;;;;;;;4.53;4.13;;;;;;;;;;5011742;28;20049;-41
2022/06/29 02:39:57;;;;;;;4.68;4.20;;;;;;;;;;5011658;28;20430;-41
2022/06/29 02:42:22;;;;;;;5.03;4.22;;;;;;;;;;5011912;28;20034;-41
2022/06/29 02:44:48;;;;;;;5.30;4.22;;;;;;;;;;5011668;28;20487;-41
2022/06/29 02:47:14;;;;;;;8.43;4.28;;;;;;;;;;5011471;28;20020;-41
2022/06/29 02:49:39;;;;;;;6.20;5.00;;;;;;;;;;5011411;28;20049;-41
2022/06/29 02:52:05;;;;;;;5.55;4.85;;;;;;;;;;5011399;28;20021;-41
2022/06/29 02:54:30;;;;;;;5.25;4.72;;;;;;;;;;5011844;28;20045;-41
2022/06/29 02:56:56;;;;;;;7.15;4.40;;;;;;;;;;5011404;28;20498;-41
2022/06/29 02:59:22;;;;;;;7.72;4.40;;;;;;;;;;5027067;28;20038;-41
2022/06/29 03:01:48;;;;;;;5.68;4.50;;;;;;;;;;5015377;28;20029;-40
2022/06/29 03:04:13;;;;;;;6.68;4.93;;;;;;;;;;5015342;28;20054;-41
2022/06/29 03:06:39;;;;;;;6.82;4.43;;;;;;;;;;5015660;28;20041;-41
2022/06/29 03:09:04;;;;;;;5.90;4.60;;;;;;;;;;5015616;28;20495;-41
2022/06/29 03:11:31;;;;;;;7.65;4.75;;;;;;;;;;5015207;28;20076;-41
2022/06/29 03:13:56;;;;;;;7.43;4.95;;;;;;;;;;5015446;28;20034;-41
2022/06/29 03:16:22;;;;;;;12.05;4.90;;;;;;;;;;5015340;28;20022;-41
2022/06/29 03:18:49;;;;;;;5.70;4.65;;;;;;;;;;5015157;28;20050;-41
2022/06/29 03:21:15;;;;;;;7.05;5.13;;;;;;;;;;5015148;28;20041;-41
2022/06/29 03:23:40;;;;;;;6.78;4.25;;;;;;;;;;5014992;28;20033;-41
2022/06/29 03:26:05;;;;;;;7.70;4.82;;;;;;;;;;5015334;28;20010;-40
2022/06/29 03:28:31;;;;;;;6.90;5.10;;;;;;;;;;5015137;28;20092;-41
2022/06/29 03:30:56;;;;;;;7.25;4.85;;;;;;;;;;5014933;28;20022;-41
2022/06/29 03:33:22;;;;;;;11.48;5.20;;;;;;;;;;5015191;28;20037;-41
2022/06/29 03:35:47;;;;;;;6.95;5.30;;;;;;;;;;5014900;28;20415;-41
2022/06/29 03:38:13;;;;;;;6.00;5.50;;;;;;;;;;5014758;28;20029;-41
2022/06/29 03:40:39;;;;;;;5.00;4.50;;;;;;;;;;5014754;28;20022;-41
2022/06/29 03:43:04;;;;;;;5.13;4.63;;;;;;;;;;5015042;28;20034;-41
2022/06/29 03:45:29;;;;;;;7.68;5.13;;;;;;;;;;5014943;28;20048;-41
2022/06/29 03:47:55;;;;;;;5.55;5.05;;;;;;;;;;5014694;28;20510;-41
2022/06/29 03:50:20;;;;;;;5.25;4.43;;;;;;;;;;5014512;28;20105;-40
2022/06/29 03:52:46;;;;;;;7.13;4.90;;;;;;;;;;5014725;28;20033;-41
2022/06/29 03:55:11;;;;;;;7.63;5.50;;;;;;;;;;5029747;28;20084;-41
2022/06/29 03:57:37;;;;;;;5.43;4.80;;;;;;;;;;5014633;28;20038;-40
2022/06/29 04:00:03;;;;;;;5.07;4.57;;;;;;;;;;5014465;28;20029;-41
2022/06/29 04:02:37;;;;;;;5.45;4.95;;;;;;;;;;5013992;28;20387;-41
2022/06/29 04:05:04;;;;;;;7.90;5.18;;;;;;;;;;5014260;28;20034;-42
2022/06/29 04:07:33;;;;;;;7.18;5.55;;;;;;;;;;5014209;28;20026;-41
2022/06/29 04:10:01;;;;;;;8.63;5.13;;;;;;;;;;5014158;28;20081;-41
2022/06/29 04:12:28;;;;;;;5.18;4.68;;;;;;;;;;5014156;28;20344;-41
2022/06/29 04:14:53;;;;;;;5.43;4.93;;;;;;;;;;5014136;28;20065;-41
2022/06/29 04:17:19;;;;;;;8.18;5.15;;;;;;;;;;5013975;28;20108;-41
2022/06/29 04:19:44;;;;;;;5.97;5.25;;;;;;;;;;5013953;28;20040;-41
2022/06/29 04:22:10;;;;;;;14.20;6.35;;;;;;;;;;5013959;28;20034;-40
2022/06/29 04:24:35;;;;;;;9.52;5.32;;;;;;;;;;5013809;28;20066;-40
2022/06/29 04:27:01;;;;;;;8.57;5.78;;;;;;;;;;5014023;28;20110;-41
2022/06/29 04:29:27;;;;;;;9.18;4.47;;;;;;;;;;5014140;28;20042;-41
2022/06/29 04:31:52;;;;;;;6.75;4.95;;;;;;;;;;5013644;28;20022;-40
2022/06/29 04:34:17;;;;;;;6.53;4.70;;;;;;;;;;5013767;28;20033;-40
2022/06/29 04:36:43;;;;;;;8.68;4.55;;;;;;;;;;5014025;28;20385;-41
2022/06/29 04:39:08;;;;;;;7.22;5.05;;;;;;;;;;5013678;28;20036;-41
2022/06/29 04:41:34;;;;;;;8.25;4.97;;;;;;;;;;5012191;28;20058;-40
2022/06/29 04:43:59;;;;;;;5.30;4.80;;;;;;;;;;5012267;28;20484;-41
2022/06/29 04:46:25;;;;;;;4.85;4.35;;;;;;;;;;5013547;28;20030;-40
2022/06/29 04:48:55;;;;;;;9.65;5.40;;;;;;;;;;5013405;28;20038;-41
2022/06/29 04:51:21;;;;;;;4.57;4.18;;;;;;;;;;5013482;28;20121;-41
2022/06/29 04:53:47;;;;;;;8.95;4.88;;;;;;;;;;5013683;28;20042;-41
2022/06/29 04:56:13;;;;;;;5.68;3.95;;;;;;;;;;5013376;28;20018;-41
2022/06/29 04:58:39;;;;;;;6.95;4.55;;;;;;;;;;5013232;28;20034;-41
2022/06/29 05:01:05;;;;;;;7.03;4.72;;;;;;;;;;5013461;28;20076;-41
2022/06/29 05:03:33;;;;;;;5.32;4.55;;;;;;;;;;5013083;28;20050;-40
2022/06/29 05:05:59;;;;;;;5.15;4.65;;;;;;;;;;5013482;28;20379;-40
2022/06/29 05:08:24;;;;;;;5.47;3.97;;;;;;;;;;5013093;28;20097;-41
2022/06/29 05:10:50;;;;;;;7.60;4.32;;;;;;;;;;5013269;28;20029;-41
2022/06/29 05:13:15;;;;;;;5.15;4.75;;;;;;;;;;5011717;28;20037;-41
2022/06/29 05:15:41;;;;;;;5.10;4.40;;;;;;;;;;5013054;28;20509;-41
2022/06/29 05:18:06;;;;;;;5.32;4.55;;;;;;;;;;5013374;28;20045;-41
2022/06/29 05:20:32;;;;;;;7.40;4.47;;;;;;;;;;5012857;28;20026;-41
2022/06/29 05:22:58;;;;;;;5.03;4.60;;;;;;;;;;5027421;28;20044;-41
2022/06/29 05:25:23;;;;;;;5.60;5.07;;;;;;;;;;5012849;28;20018;-41
2022/06/29 05:27:49;;;;;;;4.82;4.32;;;;;;;;;;5012600;28;20036;-41
2022/06/29 05:30:15;;;;;;;5.43;4.50;;;;;;;;;;5012812;28;20549;-41
2022/06/29 05:32:40;;;;;;;7.47;5.28;;;;;;;;;;5012870;28;20096;-41
2022/06/29 05:35:07;;;;;;;6.35;4.95;;;;;;;;;;5012849;28;20018;-41
2022/06/29 05:37:33;;;;;;;5.47;4.57;;;;;;;;;;5012937;28;20116;-41
2022/06/29 05:39:58;;;;;;;6.40;4.00;;;;;;;;;;5012531;28;20053;-41
2022/06/29 05:42:24;;;;;;;5.13;4.10;;;;;;;;;;5012796;28;20033;-42
2022/06/29 05:44:49;;;;;;;4.32;3.97;;;;;;;;;;5012421;28;20365;-41
2022/06/29 05:47:15;;;;;;;4.93;3.85;;;;;;;;;;5012660;28;20038;-41
2022/06/29 05:49:41;;;;;;;7.15;4.35;;;;;;;;;;5012257;28;20479;-41
2022/06/29 05:52:07;;;;;;;5.72;4.97;;;;;;;;;;5012525;28;20028;-41
2022/06/29 05:54:32;;;;;;;5.10;4.20;;;;;;;;;;5012752;28;20394;-41
2022/06/29 05:56:58;;;;;;;5.07;3.88;;;;;;;;;;5012492;28;20531;-41
2022/06/29 05:59:23;;;;;;;9.70;4.80;;;;;;;;;;5012114;28;20518;-41
2022/06/29 06:01:49;;;;;;;7.70;4.70;;;;;;;;;;5012111;28;20026;-41
2022/06/29 06:04:14;;;;;;;6.10;4.18;;;;;;;;;;5011826;28;20054;-40
2022/06/29 06:06:40;;;;;;;4.57;4.20;;;;;;;;;;5012423;28;20030;-45
2022/06/29 06:09:05;;;;;;;6.55;4.15;;;;;;;;;;5012035;28;20037;-41
2022/06/29 06:11:31;;;;;;;4.85;3.83;;;;;;;;;;5011932;28;20018;-41
2022/06/29 06:13:57;;;;;;;5.65;5.10;;;;;;;;;;5011886;28;20502;-41
2022/06/29 06:16:23;;;;;;;10.40;4.70;;;;;;;;;;5012194;28;20517;-46
2022/06/29 06:18:48;;;;;;;6.55;3.47;;;;;;;;;;5011922;28;20022;-41
2022/06/29 06:21:15;;;;;;;6.22;4.60;;;;;;;;;;5012267;28;20467;-41
2022/06/29 06:23:40;;;;;;;5.18;4.65;;;;;;;;;;5011762;28;20451;-41
2022/06/29 06:26:10;;;;;;;8.60;4.85;;;;;;;;;;5011668;28;20030;-41
2022/06/29 06:28:36;;;;;;;4.97;4.47;;;;;;;;;;5011582;28;20034;-41
2022/06/29 06:31:02;;;;;;;5.07;4.28;;;;;;;;;;5011840;28;20026;-41
2022/06/29 06:33:27;;;;;;;5.38;4.35;;;;;;;;;;4993742;28;20117;-41
2022/06/29 06:35:55;;;;;;;5.03;4.00;;;;;;;;;;5011387;28;20115;-41
2022/06/29 06:38:21;;;;;;;4.63;4.22;;;;;;;;;;5011964;28;20164;-41
2022/06/29 06:43:34;;;;;;;8.25;4.22;;;;;;;;;;5012106;28;20542;-41
2022/06/29 06:46:01;;;;;;;4.28;3.88;;;;;;;;;;5011521;28;20032;-41
2022/06/29 06:48:27;;;;;;;9.23;4.85;;;;;;;;;;5011515;28;20052;-41
2022/06/29 06:50:53;;;;;;;5.90;4.10;;;;;;;;;;5011436;28;20182;-40
2022/06/29 06:53:19;;;;;;;5.35;4.35;;;;;;;;;;5026782;28;20064;-40
2022/06/29 06:55:45;;;;;;;6.93;4.70;;;;;;;;;;5011340;28;20018;-41
2022/06/29 06:58:11;;;;;;;5.05;4.18;;;;;;;;;;5011485;28;20055;-41
2022/06/29 07:00:38;;;;;;;7.38;4.45;;;;;;;;;;5011624;28;20026;-40
2022/06/29 07:03:05;;;;;;;4.82;4.00;;;;;;;;;;5011245;28;20181;-40
2022/06/29 07:05:34;;;;;;;5.10;4.22;;;;;;;;;;5011598;28;20058;-40
2022/06/29 07:08:00;;;;;;;7.53;4.10;;;;;;;;;;5011268;28;20036;-40
2022/06/29 07:10:27;;;;;;;4.53;4.07;;;;;;;;;;5011254;28;20026;-40
2022/06/29 07:12:53;;;;;;;5.30;4.80;;;;;;;;;;5011277;28;20061;-40
2022/06/29 07:15:19;;;;;;;6.10;3.97;;;;;;;;;;5011332;28;20029;-40
2022/06/29 07:17:47;;;;;;;5.15;4.60;;;;;;;;;;5011233;28;20121;-40
2022/06/29 07:20:15;;;;;;;5.80;4.70;;;;;;;;;;5011459;28;20116;-41
2022/06/29 07:22:52;;;;;;;9.30;4.72;;;;;;;;;;5009869;28;20033;-41
2022/06/29 07:25:18;;;;;;;5.53;4.32;;;;;;;;;;5011546;28;20069;-40
2022/06/29 07:27:45;;;;;;;4.63;4.22;;;;;;;;;;5011039;28;20026;-40
2022/06/29 07:30:12;;;;;;;5.72;5.05;;;;;;;;;;5011120;28;20044;-41
2022/06/29 07:32:38;;;;;;;5.88;5.28;;;;;;;;;;5011204;28;20045;-40
2022/06/29 07:35:04;;;;;;;6.43;4.50;;;;;;;;;;5026176;28;20509;-41
2022/06/29 07:37:30;;;;;;;5.10;4.60;;;;;;;;;;5009849;28;20645;-41
2022/06/29 07:39:56;;;;;;;6.57;4.90;;;;;;;;;;5011052;28;20034;-41
2022/06/29 07:42:25;;;;;;;9.05;4.28;;;;;;;;;;5009716;28;20050;-40
2022/06/29 07:44:52;;;;;;;6.97;4.65;;;;;;;;;;5010841;28;20041;-41
2022/06/29 07:47:18;;;;;;;6.63;4.93;;;;;;;;;;5014253;28;20014;-41
2022/06/29 07:49:43;;;;;;;6.80;5.07;;;;;;;;;;5014568;28;20038;-41
2022/06/29 07:52:09;;;;;;;6.57;4.85;;;;;;;;;;5014684;28;20037;-41
2022/06/29 07:54:38;;;;;;;6.15;5.43;;;;;;;;;;5014553;28;20080;-41
2022/06/29 07:57:04;;;;;;;6.25;4.75;;;;;;;;;;5014418;28;20499;-41
2022/06/29 07:59:30;;;;;;;7.72;4.25;;;;;;;;;;5014460;28;20034;-40
2022/06/29 08:01:56;;;;;;;5.70;4.38;;;;;;;;;;5014160;28;20022;-41
2022/06/29 08:04:21;;;;;;;5.88;4.72;;;;;;;;;;5014169;28;20137;-41
2022/06/29 08:06:47;;;;;;;8.35;4.35;;;;;;;;;;5014369;28;20152;-42
2022/06/29 08:09:16;;;;;;;5.57;4.50;;;;;;;;;;5014506;28;20592;-41
2022/06/29 08:11:41;;;;;;;4.57;4.18;;;;;;;;;;5014086;28;20032;-41
2022/06/29 08:14:07;;;;;;;6.60;4.75;;;;;;;;;;5014120;28;20022;-41
2022/06/29 08:16:33;;;;;;;8.10;4.15;;;;;;;;;;5014382;28;20025;-41
2022/06/29 08:18:59;;;;;;;5.15;4.65;;;;;;;;;;5014073;28;20061;-41
2022/06/29 08:21:24;;;;;;;12.98;4.72;;;;;;;;;;5014048;28;20111;-41
2022/06/29 08:23:50;;;;;;;8.80;4.25;;;;;;;;;;5014031;28;20380;-41
2022/06/29 08:26:15;;;;;;;14.05;5.30;;;;;;;;;;5014413;28;20502;-41
2022/06/29 08:28:41;;;;;;;11.30;4.32;;;;;;;;;;5013971;28;20065;-41
2022/06/29 08:31:06;;;;;;;15.02;5.45;;;;;;;;;;5014321;28;20076;-42
2022/06/29 08:33:31;;;;;;;7.65;4.93;;;;;;;;;;5014058;28;20045;-41
2022/06/29 08:35:57;;;;;;;19.40;5.13;;;;;;;;;;5013928;28;20104;-41
2022/06/29 08:38:23;;;;;;;10.60;4.85;;;;;;;;;;5013955;28;20037;-41
2022/06/29 08:40:48;;;;;;;11.43;4.05;;;;;;;;;;5014031;28;20046;-41
2022/06/29 08:43:15;;;;;;;11.20;3.60;;;;;;;;;;5014193;28;20376;-41
2022/06/29 08:45:43;;;;;;;14.95;3.65;;;;;;;;;;5013712;28;20104;-41
2022/06/29 08:48:08;;;;;;;11.50;4.57;;;;;;;;;;5013945;28;20073;-41
2022/06/29 08:50:34;;;;;;;15.38;3.67;;;;;;;;;;5013720;28;20072;-41
2022/06/29 08:53:02;;;;;;;15.13;3.88;;;;;;;;;;5013973;28;20041;-41
2022/06/29 08:55:28;;;;;;;10.02;3.67;;;;;;;;;;5013628;28;20053;-42
2022/06/29 08:57:55;;;;;;;20.88;5.03;;;;;;;;;;5012914;28;20040;-41
2022/06/29 09:00:21;;;;;;;16.27;4.53;;;;;;;;;;5013542;28;20100;-41
2022/06/29 09:02:46;;;;;;;14.48;3.92;;;;;;;;;;5013339;28;20113;-41
2022/06/29 09:05:12;;;;;;;9.32;4.35;;;;;;;;;;5013507;28;20041;-41
2022/06/29 09:07:38;;;;;;;15.30;5.38;;;;;;;;;;5013264;28;20084;-42
2022/06/29 09:10:13;;;;;;;16.20;4.28;;;;;;;;;;5013310;28;20034;-41
2022/06/29 09:12:39;;;;;;;32.55;6.32;;;;;;;;;;5013252;28;20041;-41
2022/06/29 09:15:07;;;;;;;18.08;4.00;;;;;;;;;;5013542;28;20021;-41
2022/06/29 09:17:33;;;;;;;27.38;4.75;;;;;;;;;;5013232;28;20034;-41
2022/06/29 09:19:58;;;;;;;13.10;3.88;;;;;;;;;;5013444;28;20026;-41
2022/06/29 09:22:24;;;;;;;7.55;4.18;;;;;;;;;;5013076;28;20030;-41
2022/06/29 09:24:51;;;;;;;18.20;5.15;;;;;;;;;;5012999;28;20022;-42
2022/06/29 09:27:17;;;;;;;17.65;4.63;;;;;;;;;;5013038;28;20034;-41
2022/06/29 09:29:43;;;;;;;11.63;4.40;;;;;;;;;;5012984;28;20056;-42
2022/06/29 09:32:11;;;;;;;9.10;4.05;;;;;;;;;;5012923;28;20479;-41
2022/06/29 09:34:38;;;;;;;17.02;4.22;;;;;;;;;;5012942;28;20026;-41
2022/06/29 09:37:07;;;;;;;6.70;3.95;;;;;;;;;;5012866;28;20408;-42
2022/06/29 09:39:52;;;;;;;7.75;4.15;;;;;;;;;;5012863;28;20014;-41
2022/06/29 09:42:22;;;;;;;17.27;4.50;;;;;;;;;;5013085;28;20100;-42
2022/06/29 09:44:48;;;;;;;12.63;4.35;;;;;;;;;;5012874;28;20439;-41
2022/06/29 09:47:19;;;;;;;8.52;4.20;;;;;;;;;;5012683;28;20088;-41
2022/06/29 09:49:46;;;;;;;18.45;4.90;;;;;;;;;;5012546;28;20042;-42
2022/06/29 09:52:12;;;;;;;15.23;4.43;;;;;;;;;;5012641;28;20076;-40
2022/06/29 09:54:41;;;;;;;14.85;4.25;;;;;;;;;;5013262;28;20129;-41
2022/06/29 09:57:07;;;;;;;14.70;5.22;;;;;;;;;;5012988;28;20392;-42
2022/06/29 10:02:35;;;;;;;14.27;4.78;;;;;;;;;;5012992;28;20030;-42
2022/06/29 10:05:01;;;;;;;23.80;5.22;;;;;;;;;;5013030;28;20064;-41
2022/06/29 10:07:31;;;;;;;13.20;4.75;;;;;;;;;;5027785;28;20432;-41
2022/06/29 10:09:57;;;;;;;12.88;4.32;;;;;;;;;;5027662;28;20041;-41
2022/06/29 10:15:28;;;;;;;14.93;5.03;;;;;;;;;;5012999;28;20033;-41
2022/06/29 10:17:53;;;;;;;6.43;3.50;;;;;;;;;;5012635;28;20038;-41
2022/06/29 10:20:38;;;;;;;15.68;4.93;;;;;;;;;;5011254;28;20029;-41
2022/06/29 10:23:03;;;;;;;20.48;4.55;;;;;;;;;;5012872;28;20037;-41
2022/06/29 10:25:29;;;;;;;11.57;4.40;;;;;;;;;;5012879;28;20014;-41
2022/06/29 10:28:13;;;;;;;26.63;4.80;;;;;;;;;;5012349;28;20042;-41
2022/06/29 10:30:38;;;;;;;17.52;4.22;;;;;;;;;;5012660;28;20417;-41
2022/06/29 10:33:23;;;;;;;20.88;5.05;;;;;;;;;;5012562;28;20101;-41
2022/06/29 10:35:55;;;;;;;17.13;4.40;;;;;;;;;;5012278;28;20064;-41
2022/06/29 10:38:21;;;;;;;;;;;;;;;;;;5012873;28;20029;-42
2022/06/29 10:41:05;;;;;;;10.90;3.80;;;;;;;;;;5012507;28;19913;-41
2022/06/29 10:43:31;;;;;;;11.98;4.25;;;;;;;;;;5012625;28;20105;-40
2022/06/29 10:45:57;;;;;;;9.68;3.58;;;;;;;;;;5010911;28;20026;-41
2022/06/29 10:48:25;;;;;;;14.63;3.72;;;;;;;;;;5012196;28;20050;-41
2022/06/29 10:50:51;;;;;;;12.43;4.35;;;;;;;;;;5027180;28;20022;-40
2022/06/29 10:53:17;;;;;;;14.80;4.30;;;;;;;;;;5012220;28;20034;-40
2022/06/29 10:55:53;;;;;;;8.45;3.63;;;;;;;;;;5012084;28;20099;-41
2022/06/29 10:58:20;;;;;;;4.60;3.28;;;;;;;;;;5012177;28;20103;-40
2022/06/29 11:00:53;;;;;;;11.52;3.67;;;;;;;;;;5012010;28;20072;-41
2022/06/29 11:03:23;;;;;;;11.05;3.25;;;;;;;;;;5012003;28;20135;-42
2022/06/29 11:14:03;;;;;;;9.73;3.03;;;;;;;;;;5012073;28;20116;-41
2022/06/29 11:16:29;;;;;;;18.48;3.90;;;;;;;;;;5011970;28;20133;-42
2022/06/29 11:18:56;;;;;;;12.18;3.10;;;;;;;;;;5027139;28;20041;-41
2022/06/29 11:21:21;;;;;;;16.77;4.20;;;;;;;;;;5014075;28;20454;-41
2022/06/29 11:23:54;;;;;;;12.57;3.63;;;;;;;;;;5016020;28;20038;-41
2022/06/29 11:26:22;;;;;;;7.32;3.47;;;;;;;;;;5015729;28;20423;-41
2022/06/29 11:28:51;;;;;;;7.68;3.03;;;;;;;;;;5015624;28;20037;-41
2022/06/29 11:31:19;;;;;;;9.55;3.70;;;;;;;;;;5015551;28;20075;-41
2022/06/29 11:33:47;;;;;;;13.02;3.42;;;;;;;;;;5015653;28;20027;-40
2022/06/29 11:36:17;;;;;;;16.27;3.80;;;;;;;;;;5015572;28;20091;-41
2022/06/29 11:38:44;;;;;;;11.25;2.85;;;;;;;;;;5015502;28;20490;-41
2022/06/29 11:41:14;;;;;;;8.38;2.75;;;;;;;;;;5015769;28;20022;-41
2022/06/29 11:43:40;;;;;;;11.30;2.55;;;;;;;;;;5015462;28;20123;-41
2022/06/29 11:46:05;;;;;;;14.10;2.00;;;;;;;;;;5015349;28;20491;-41
2022/06/29 11:48:31;;;;;;;9.32;3.33;;;;;;;;;;5030541;28;20030;-41
2022/06/29 11:50:58;;;;;;;9.05;3.55;;;;;;;;;;5015559;28;20026;-40
2022/06/29 11:53:39;;;;;;;9.82;2.25;;;;;;;;;;5015272;28;20025;-41
2022/06/29 11:56:13;;;;;;;6.32;2.15;;;;;;;;;;5015290;28;20073;-41
2022/06/29 11:58:39;;;;;;;4.68;2.42;;;;;;;;;;5015301;28;20476;-41
2022/06/29 12:01:12;;;;;;;6.72;1.98;;;;;;;;;;5015060;28;20222;-41
2022/06/29 12:03:38;;;;;;;4.15;2.13;;;;;;;;;;5015038;28;20062;-41
2022/06/29 12:06:03;;;;;;;10.20;2.42;;;;;;;;;;5030162;28;20034;-41
2022/06/29 12:08:32;;;;;;;16.25;3.33;;;;;;;;;;5014926;28;20135;-41
2022/06/29 12:10:58;;;;;;;10.40;3.25;;;;;;;;;;5014854;28;20024;-42
2022/06/29 12:13:24;;;;;;;14.45;3.22;;;;;;;;;;5014866;28;20037;-41
2022/06/29 12:15:50;;;;;;;11.95;2.63;;;;;;;;;;5014831;28;20018;-41
2022/06/29 12:18:16;;;;;;;12.27;2.80;;;;;;;;;;5014854;28;20483;-41
2022/06/29 12:20:42;;;;;;;9.15;3.10;;;;;;;;;;5014689;28;20024;-41
2022/06/29 12:23:07;;;;;;;5.68;2.45;;;;;;;;;;5014699;28;20026;-41
2022/06/29 12:25:33;;;;;;;13.82;2.97;;;;;;;;;;5014764;28;20048;-41
2022/06/29 12:27:59;;;;;;;6.95;2.42;;;;;;;;;;5014537;28;20046;-42
2022/06/29 12:30:24;;;;;;;4.85;2.90;;;;;;;;;;5014888;28;20037;-41
2022/06/29 12:32:50;;;;;;;7.13;2.90;;;;;;;;;;5013190;28;20506;-41
2022/06/29 12:35:15;;;;;;;8.10;2.60;;;;;;;;;;5013255;28;20030;-41
2022/06/29 12:37:43;;;;;;;8.57;1.98;;;;;;;;;;5014499;28;20034;-41
2022/06/29 12:40:11;;;;;;;5.63;2.20;;;;;;;;;;5014427;28;20022;-42
2022/06/29 12:42:36;;;;;;;10.00;2.60;;;;;;;;;;5014427;28;20033;-41
2022/06/29 12:45:02;;;;;;;8.20;2.53;;;;;;;;;;5014313;28;20014;-42
2022/06/29 12:47:28;;;;;;;4.85;2.03;;;;;;;;;;5013149;28;20144;-41
2022/06/29 12:49:54;;;;;;;10.50;2.28;;;;;;;;;;5014043;28;20494;-41
2022/06/29 12:52:19;;;;;;;6.47;2.65;;;;;;;;;;5014192;28;20026;-41
2022/06/29 12:54:44;;;;;;;9.60;2.88;;;;;;;;;;5014131;28;20493;-41
2022/06/29 12:57:10;;;;;;;12.02;2.47;;;;;;;;;;5014046;28;20030;-43
2022/06/29 12:59:35;;;;;;;10.27;2.80;;;;;;;;;;5014142;28;20014;-41
2022/06/29 13:02:01;;;;;;;8.93;2.72;;;;;;;;;;5014200;28;20104;-41
2022/06/29 13:04:27;;;;;;;10.70;2.67;;;;;;;;;;5013814;28;20495;-41
2022/06/29 13:06:52;;;;;;;11.52;2.97;;;;;;;;;;5014193;28;20218;-41
2022/06/29 13:09:18;;;;;;;8.55;2.47;;;;;;;;;;5013832;28;20030;-41
2022/06/29 13:11:44;;;;;;;8.05;2.22;;;;;;;;;;5013684;28;20037;-40
2022/06/29 13:14:09;;;;;;;11.30;2.75;;;;;;;;;;5013867;28;20108;-41
2022/06/29 13:16:35;;;;;;;13.02;2.90;;;;;;;;;;5012203;28;20033;-41
2022/06/29 13:19:00;;;;;;;17.67;3.22;;;;;;;;;;5013703;28;20036;-40
2022/06/29 13:21:26;;;;;;;8.43;2.25;;;;;;;;;;5013613;28;20022;-45
2022/06/29 13:23:51;;;;;;;7.10;2.28;;;;;;;;;;5013554;28;20468;-40
2022/06/29 13:26:17;;;;;;;11.30;3.25;;;;;;;;;;5013520;28;20025;-41
2022/06/29 13:28:43;;;;;;;6.68;2.45;;;;;;;;;;5013689;28;20075;-42
2022/06/29 13:31:11;;;;;;;8.27;2.25;;;;;;;;;;5012246;28;20506;-41
2022/06/29 13:33:37;;;;;;;7.15;2.80;;;;;;;;;;5013410;28;20022;-42
2022/06/29 13:36:03;;;;;;;5.75;2.50;;;;;;;;;;5013387;28;20029;-40
2022/06/29 13:38:29;;;;;;;6.93;2.15;;;;;;;;;;5013324;28;20615;-41
2022/06/29 13:40:54;;;;;;;11.18;3.00;;;;;;;;;;5012034;28;20026;-42
2022/06/29 13:43:20;;;;;;;10.40;2.40;;;;;;;;;;5012886;28;20022;-40
2022/06/29 13:45:46;;;;;;;8.48;2.60;;;;;;;;;;5013179;28;20030;-41
2022/06/29 13:48:12;;;;;;;5.78;3.03;;;;;;;;;;5013115;28;20383;-41
2022/06/29 13:50:38;;;;;;;9.82;2.50;;;;;;;;;;5013164;28;20033;-42
2022/06/29 13:53:04;;;;;;;39.47;4.28;;;;;;;;;;5012931;28;20028;-42
2022/06/29 13:55:29;;;;;;;8.15;3.22;;;;;;;;;;5013120;28;20029;-42
2022/06/29 13:57:55;;;;;;;9.75;3.00;;;;;;;;;;5013244;28;20021;-41
2022/06/29 14:00:35;;;;;;;8.60;2.55;;;;;;;;;;5012889;28;20032;-41
2022/06/29 14:03:02;;;;;;;10.43;2.92;;;;;;;;;;5012602;28;20057;-41
2022/06/29 14:05:28;;;;;;;6.63;2.65;;;;;;;;;;5013170;28;20080;-41
2022/06/29 14:07:54;;;;;;;25.48;3.70;;;;;;;;;;5012639;28;20034;-41
2022/06/29 14:10:19;;;;;;;4.82;2.97;;;;;;;;;;5012763;28;20033;-41
2022/06/29 14:12:45;;;;;;;8.73;2.60;;;;;;;;;;5027955;28;20036;-41
2022/06/29 14:15:11;;;;;;;9.57;2.50;;;;;;;;;;5011438;28;20014;-41
2022/06/29 14:17:37;;;;;;;9.25;2.60;;;;;;;;;;5012693;28;20073;-42
2022/06/29 14:20:03;;;;;;;9.63;2.60;;;;;;;;;;5027769;28;20029;-41
2022/06/29 14:22:29;;;;;;;7.90;2.95;;;;;;;;;;5012645;28;20021;-41
2022/06/29 14:24:55;;;;;;;7.93;3.33;;;;;;;;;;5012569;28;20084;-41
2022/06/29 14:27:21;;;;;;;5.95;2.90;;;;;;;;;;5011317;28;20468;-41
2022/06/29 14:29:46;;;;;;;6.30;3.08;;;;;;;;;;5012270;28;20029;-41
2022/06/29 14:32:14;;;;;;;5.85;2.22;;;;;;;;;;5012513;28;20022;-41
2022/06/29 14:34:39;;;;;;;5.30;2.65;;;;;;;;;;5027451;28;20022;-41
2022/06/29 14:37:05;;;;;;;14.38;3.42;;;;;;;;;;5012573;28;20064;-41
2022/06/29 14:39:31;;;;;;;4.15;2.83;;;;;;;;;;5012491;28;20057;-41
2022/06/29 14:41:58;;;;;;;10.85;2.92;;;;;;;;;;5012247;28;20021;-41
2022/06/29 14:44:23;;;;;;;9.27;3.00;;;;;;;;;;5012305;28;20468;-41
2022/06/29 14:46:49;;;;;;;9.50;2.53;;;;;;;;;;5011725;28;20036;-41
2022/06/29 14:49:15;;;;;;;8.27;2.30;;;;;;;;;;5011721;28;20029;-41
2022/06/29 14:51:42;;;;;;;11.73;3.00;;;;;;;;;;5010398;28;20045;-41
2022/06/29 14:54:07;;;;;;;5.22;2.13;;;;;;;;;;5011717;28;20100;-41
2022/06/29 14:56:33;;;;;;;7.57;2.75;;;;;;;;;;5010997;28;20376;-41